sensor_id;sensor_type;location;lat;lon;timestamp;temperature;humidity
11908;DHT22;6014;47.690;9.130;2023-04-15T00:00:55;2.30;99.90
11908;DHT22;6014;47.690;9.130;2023-04-15T00:03:24;2.30;99.90
11908;DHT22;6014;47.690;9.130;2023-04-15T00:05:54;2.20;99.90
11908;DHT22;6014;47.690;9.130;2023-04-15T00:08:22;2.20;99.90
11908;DHT22;6014;47.690;9.130;2023-04-15T00:10:50;2.20;99.90
11908;DHT22;6014;47.690;9.130;2023-04-15T00:13:18;2.10;99.90
11908;DHT22;6014;47.690;9.130;2023-04-15T00:15:46;2.20;99.90
11908;DHT22;6014;47.690;9.130;2023-04-15T00:18:14;2.10;99.90
11908;DHT22;6014;47.690;9.130;2023-04-15T00:20:43;2.10;99.90
11908;DHT22;6014;47.690;9.130;2023-04-15T00:23:13;2.10;99.90
11908;DHT22;6014;47.690;9.130;2023-04-15T00:25:41;2.00;99.90
11908;DHT22;6014;47.690;9.130;2023-04-15T00:28:09;2.00;99.90
11908;DHT22;6014;47.690;9.130;2023-04-15T00:30:37;2.00;99.90
11908;DHT22;6014;47.690;9.130;2023-04-15T00:33:05;1.90;99.90
11908;DHT22;6014;47.690;9.130;2023-04-15T00:35:40;2.00;99.90
11908;DHT22;6014;47.690;9.130;2023-04-15T00:38:08;2.00;99.90
11908;DHT22;6014;47.690;9.130;2023-04-15T00:40:38;2.00;99.90
11908;DHT22;6014;47.690;9.130;2023-04-15T00:43:06;1.90;99.90
11908;DHT22;6014;47.690;9.130;2023-04-15T00:45:34;1.80;99.90
11908;DHT22;6014;47.690;9.130;2023-04-15T00:48:04;1.80;99.90
11908;DHT22;6014;47.690;9.130;2023-04-15T00:50:32;1.80;99.90
11908;DHT22;6014;47.690;9.130;2023-04-15T00:53:00;1.80;99.90
11908;DHT22;6014;47.690;9.130;2023-04-15T00:55:28;1.80;99.90
11908;DHT22;6014;47.690;9.130;2023-04-15T00:57:57;1.80;99.90
11908;DHT22;6014;47.690;9.130;2023-04-15T01:00:25;1.80;99.90
11908;DHT22;6014;47.690;9.130;2023-04-15T01:02:54;1.80;99.90
11908;DHT22;6014;47.690;9.130;2023-04-15T01:05:23;1.80;99.90
11908;DHT22;6014;47.690;9.130;2023-04-15T01:07:51;1.80;99.90
11908;DHT22;6014;47.690;9.130;2023-04-15T01:10:19;1.80;99.90
11908;DHT22;6014;47.690;9.130;2023-04-15T01:12:47;1.70;99.90
11908;DHT22;6014;47.690;9.130;2023-04-15T01:15:16;1.60;99.90
11908;DHT22;6014;47.690;9.130;2023-04-15T01:17:45;1.60;99.90
11908;DHT22;6014;47.690;9.130;2023-04-15T01:20:13;1.60;99.90
11908;DHT22;6014;47.690;9.130;2023-04-15T01:22:42;1.60;99.90
11908;DHT22;6014;47.690;9.130;2023-04-15T01:25:12;1.60;99.90
11908;DHT22;6014;47.690;9.130;2023-04-15T01:27:44;1.50;99.90
11908;DHT22;6014;47.690;9.130;2023-04-15T01:30:13;1.50;99.90
11908;DHT22;6014;47.690;9.130;2023-04-15T01:32:43;1.60;99.90
11908;DHT22;6014;47.690;9.130;2023-04-15T01:35:11;1.50;99.90
11908;DHT22;6014;47.690;9.130;2023-04-15T01:37:39;1.40;99.90
11908;DHT22;6014;47.690;9.130;2023-04-15T01:40:08;1.40;99.90
11908;DHT22;6014;47.690;9.130;2023-04-15T01:42:36;1.50;99.90
11908;DHT22;6014;47.690;9.130;2023-04-15T01:45:08;1.50;99.90
11908;DHT22;6014;47.690;9.130;2023-04-15T01:47:36;1.50;99.90
11908;DHT22;6014;47.690;9.130;2023-04-15T01:50:05;1.50;99.90
11908;DHT22;6014;47.690;9.130;2023-04-15T01:52:34;1.50;99.90
11908;DHT22;6014;47.690;9.130;2023-04-15T01:55:02;1.40;99.90
11908;DHT22;6014;47.690;9.130;2023-04-15T01:57:30;1.30;99.90
11908;DHT22;6014;47.690;9.130;2023-04-15T01:59:58;1.40;99.90
11908;DHT22;6014;47.690;9.130;2023-04-15T02:02:28;1.40;99.90
11908;DHT22;6014;47.690;9.130;2023-04-15T02:04:56;1.40;99.90
11908;DHT22;6014;47.690;9.130;2023-04-15T02:07:24;1.30;99.90
11908;DHT22;6014;47.690;9.130;2023-04-15T02:09:52;1.30;99.90
11908;DHT22;6014;47.690;9.130;2023-04-15T02:12:20;1.20;99.90
11908;DHT22;6014;47.690;9.130;2023-04-15T02:14:48;1.30;99.90
11908;DHT22;6014;47.690;9.130;2023-04-15T02:17:16;1.30;99.90
11908;DHT22;6014;47.690;9.130;2023-04-15T02:19:46;1.30;99.90
11908;DHT22;6014;47.690;9.130;2023-04-15T02:22:15;1.30;99.90
11908;DHT22;6014;47.690;9.130;2023-04-15T02:24:44;1.30;99.90
11908;DHT22;6014;47.690;9.130;2023-04-15T02:42:08;1.30;99.90
11908;DHT22;6014;47.690;9.130;2023-04-15T02:44:37;1.10;99.90
11908;DHT22;6014;47.690;9.130;2023-04-15T02:47:05;1.00;99.90
11908;DHT22;6014;47.690;9.130;2023-04-15T02:49:33;1.00;99.90
11908;DHT22;6014;47.690;9.130;2023-04-15T02:52:01;1.00;99.90
11908;DHT22;6014;47.690;9.130;2023-04-15T02:54:30;1.20;99.90
11908;DHT22;6014;47.690;9.130;2023-04-15T02:56:59;1.00;99.90
11908;DHT22;6014;47.690;9.130;2023-04-15T02:59:27;1.00;99.90
11908;DHT22;6014;47.690;9.130;2023-04-15T03:01:55;1.00;99.90
11908;DHT22;6014;47.690;9.130;2023-04-15T03:04:26;1.00;99.90
11908;DHT22;6014;47.690;9.130;2023-04-15T03:06:55;1.00;99.90
11908;DHT22;6014;47.690;9.130;2023-04-15T03:09:24;1.00;99.90
11908;DHT22;6014;47.690;9.130;2023-04-15T03:11:53;0.90;99.90
11908;DHT22;6014;47.690;9.130;2023-04-15T03:14:22;0.80;99.90
11908;DHT22;6014;47.690;9.130;2023-04-15T03:16:50;0.80;99.90
11908;DHT22;6014;47.690;9.130;2023-04-15T03:19:19;1.10;99.90
11908;DHT22;6014;47.690;9.130;2023-04-15T03:21:47;0.70;99.90
11908;DHT22;6014;47.690;9.130;2023-04-15T03:24:15;0.70;99.90
11908;DHT22;6014;47.690;9.130;2023-04-15T03:26:43;0.40;99.90
11908;DHT22;6014;47.690;9.130;2023-04-15T03:29:12;0.80;99.90
11908;DHT22;6014;47.690;9.130;2023-04-15T03:31:40;0.50;99.90
11908;DHT22;6014;47.690;9.130;2023-04-15T03:34:08;0.90;99.90
11908;DHT22;6014;47.690;9.130;2023-04-15T03:36:36;0.90;99.90
11908;DHT22;6014;47.690;9.130;2023-04-15T03:39:04;0.90;99.90
11908;DHT22;6014;47.690;9.130;2023-04-15T03:41:32;0.90;99.90
11908;DHT22;6014;47.690;9.130;2023-04-15T03:44:00;0.80;99.90
11908;DHT22;6014;47.690;9.130;2023-04-15T03:46:30;0.80;99.90
11908;DHT22;6014;47.690;9.130;2023-04-15T03:48:58;0.80;99.90
11908;DHT22;6014;47.690;9.130;2023-04-15T03:51:26;0.80;99.90
11908;DHT22;6014;47.690;9.130;2023-04-15T03:53:55;0.70;99.90
11908;DHT22;6014;47.690;9.130;2023-04-15T03:56:23;0.60;99.90
11908;DHT22;6014;47.690;9.130;2023-04-15T03:58:51;0.60;99.90
11908;DHT22;6014;47.690;9.130;2023-04-15T04:01:19;0.70;99.90
11908;DHT22;6014;47.690;9.130;2023-04-15T04:03:48;0.70;99.90
11908;DHT22;6014;47.690;9.130;2023-04-15T04:06:16;0.70;99.90
11908;DHT22;6014;47.690;9.130;2023-04-15T04:08:44;0.80;99.90
11908;DHT22;6014;47.690;9.130;2023-04-15T04:11:12;0.50;99.90
11908;DHT22;6014;47.690;9.130;2023-04-15T04:13:40;0.70;99.90
11908;DHT22;6014;47.690;9.130;2023-04-15T04:16:08;0.70;99.90
11908;DHT22;6014;47.690;9.130;2023-04-15T04:18:37;0.70;99.90
11908;DHT22;6014;47.690;9.130;2023-04-15T04:21:06;0.40;99.90
11908;DHT22;6014;47.690;9.130;2023-04-15T04:23:35;1.00;99.90
11908;DHT22;6014;47.690;9.130;2023-04-15T04:26:03;0.70;99.90
11908;DHT22;6014;47.690;9.130;2023-04-15T04:28:31;0.90;99.90
11908;DHT22;6014;47.690;9.130;2023-04-15T04:31:00;1.10;99.90
11908;DHT22;6014;47.690;9.130;2023-04-15T04:33:28;0.70;99.90
11908;DHT22;6014;47.690;9.130;2023-04-15T04:35:56;0.70;99.90
11908;DHT22;6014;47.690;9.130;2023-04-15T04:38:25;0.70;99.90
11908;DHT22;6014;47.690;9.130;2023-04-15T04:40:53;0.70;99.90
11908;DHT22;6014;47.690;9.130;2023-04-15T04:43:21;0.40;99.90
11908;DHT22;6014;47.690;9.130;2023-04-15T04:45:49;0.90;99.90
11908;DHT22;6014;47.690;9.130;2023-04-15T04:48:17;0.90;99.90
11908;DHT22;6014;47.690;9.130;2023-04-15T04:50:46;1.10;99.90
11908;DHT22;6014;47.690;9.130;2023-04-15T04:53:15;1.10;99.90
11908;DHT22;6014;47.690;9.130;2023-04-15T04:55:45;1.20;99.90
11908;DHT22;6014;47.690;9.130;2023-04-15T04:58:13;1.20;99.90
11908;DHT22;6014;47.690;9.130;2023-04-15T05:00:41;0.90;99.90
11908;DHT22;6014;47.690;9.130;2023-04-15T05:03:09;1.50;99.90
11908;DHT22;6014;47.690;9.130;2023-04-15T05:05:38;1.80;99.90
11908;DHT22;6014;47.690;9.130;2023-04-15T05:08:06;1.80;99.90
11908;DHT22;6014;47.690;9.130;2023-04-15T05:10:35;1.70;99.90
11908;DHT22;6014;47.690;9.130;2023-04-15T05:13:04;1.70;99.90
11908;DHT22;6014;47.690;9.130;2023-04-15T05:15:32;1.90;99.90
11908;DHT22;6014;47.690;9.130;2023-04-15T05:18:02;2.60;99.90
11908;DHT22;6014;47.690;9.130;2023-04-15T05:20:30;2.80;99.90
11908;DHT22;6014;47.690;9.130;2023-04-15T05:22:58;2.80;99.90
11908;DHT22;6014;47.690;9.130;2023-04-15T05:25:26;3.40;99.90
11908;DHT22;6014;47.690;9.130;2023-04-15T05:27:54;3.30;99.90
11908;DHT22;6014;47.690;9.130;2023-04-15T05:30:24;3.10;99.90
11908;DHT22;6014;47.690;9.130;2023-04-15T05:32:52;3.50;99.90
11908;DHT22;6014;47.690;9.130;2023-04-15T05:35:20;3.30;99.90
11908;DHT22;6014;47.690;9.130;2023-04-15T05:37:48;3.30;99.90
11908;DHT22;6014;47.690;9.130;2023-04-15T05:40:16;3.60;99.90
11908;DHT22;6014;47.690;9.130;2023-04-15T05:42:45;3.70;99.90
11908;DHT22;6014;47.690;9.130;2023-04-15T05:45:14;3.90;99.90
11908;DHT22;6014;47.690;9.130;2023-04-15T05:47:43;4.10;99.90
11908;DHT22;6014;47.690;9.130;2023-04-15T05:50:11;4.10;99.90
11908;DHT22;6014;47.690;9.130;2023-04-15T05:52:39;4.30;99.90
11908;DHT22;6014;47.690;9.130;2023-04-15T05:55:08;4.70;99.90
11908;DHT22;6014;47.690;9.130;2023-04-15T05:57:36;4.50;99.90
11908;DHT22;6014;47.690;9.130;2023-04-15T06:00:05;4.90;99.90
11908;DHT22;6014;47.690;9.130;2023-04-15T06:02:33;4.90;99.90
11908;DHT22;6014;47.690;9.130;2023-04-15T06:05:04;5.10;99.90
11908;DHT22;6014;47.690;9.130;2023-04-15T06:07:36;5.30;99.90
11908;DHT22;6014;47.690;9.130;2023-04-15T06:10:06;5.50;99.90
11908;DHT22;6014;47.690;9.130;2023-04-15T06:12:34;5.50;99.90
11908;DHT22;6014;47.690;9.130;2023-04-15T06:15:04;5.50;99.90
11908;DHT22;6014;47.690;9.130;2023-04-15T06:17:35;5.60;99.90
11908;DHT22;6014;47.690;9.130;2023-04-15T06:20:06;5.80;99.90
11908;DHT22;6014;47.690;9.130;2023-04-15T06:22:36;6.00;99.90
11908;DHT22;6014;47.690;9.130;2023-04-15T06:25:05;6.30;99.90
11908;DHT22;6014;47.690;9.130;2023-04-15T06:27:33;6.40;99.90
11908;DHT22;6014;47.690;9.130;2023-04-15T06:30:02;6.40;99.90
11908;DHT22;6014;47.690;9.130;2023-04-15T06:32:31;6.50;99.90
11908;DHT22;6014;47.690;9.130;2023-04-15T06:34:59;6.30;99.90
11908;DHT22;6014;47.690;9.130;2023-04-15T06:37:28;6.40;99.90
11908;DHT22;6014;47.690;9.130;2023-04-15T06:39:57;6.70;99.90
11908;DHT22;6014;47.690;9.130;2023-04-15T06:42:25;6.70;99.90
11908;DHT22;6014;47.690;9.130;2023-04-15T06:44:53;6.70;99.90
11908;DHT22;6014;47.690;9.130;2023-04-15T06:47:21;6.70;99.90
11908;DHT22;6014;47.690;9.130;2023-04-15T06:49:49;6.90;99.90
11908;DHT22;6014;47.690;9.130;2023-04-15T06:52:17;7.10;99.90
11908;DHT22;6014;47.690;9.130;2023-04-15T06:54:47;7.30;99.90
11908;DHT22;6014;47.690;9.130;2023-04-15T06:57:15;7.40;99.90
11908;DHT22;6014;47.690;9.130;2023-04-15T06:59:43;7.60;99.90
11908;DHT22;6014;47.690;9.130;2023-04-15T07:02:11;7.80;99.90
11908;DHT22;6014;47.690;9.130;2023-04-15T07:04:40;8.20;99.90
11908;DHT22;6014;47.690;9.130;2023-04-15T07:07:08;8.40;99.90
11908;DHT22;6014;47.690;9.130;2023-04-15T07:09:36;8.70;99.90
11908;DHT22;6014;47.690;9.130;2023-04-15T07:12:05;8.70;99.90
11908;DHT22;6014;47.690;9.130;2023-04-15T07:14:33;9.10;99.90
11908;DHT22;6014;47.690;9.130;2023-04-15T07:17:02;9.30;99.90
11908;DHT22;6014;47.690;9.130;2023-04-15T07:19:37;9.40;99.90
11908;DHT22;6014;47.690;9.130;2023-04-15T07:22:05;9.30;99.90
11908;DHT22;6014;47.690;9.130;2023-04-15T07:24:33;8.90;99.90
11908;DHT22;6014;47.690;9.130;2023-04-15T07:27:01;8.50;99.90
11908;DHT22;6014;47.690;9.130;2023-04-15T07:29:31;8.70;99.90
11908;DHT22;6014;47.690;9.130;2023-04-15T07:31:59;8.80;99.90
11908;DHT22;6014;47.690;9.130;2023-04-15T07:34:35;9.10;99.90
11908;DHT22;6014;47.690;9.130;2023-04-15T07:37:03;9.20;99.90
11908;DHT22;6014;47.690;9.130;2023-04-15T07:39:31;9.40;99.90
11908;DHT22;6014;47.690;9.130;2023-04-15T07:41:59;9.20;99.90
11908;DHT22;6014;47.690;9.130;2023-04-15T07:44:27;9.30;99.90
11908;DHT22;6014;47.690;9.130;2023-04-15T07:46:57;9.40;99.90
11908;DHT22;6014;47.690;9.130;2023-04-15T07:49:25;9.30;99.90
11908;DHT22;6014;47.690;9.130;2023-04-15T07:51:53;9.40;99.90
11908;DHT22;6014;47.690;9.130;2023-04-15T07:54:33;9.40;99.90
11908;DHT22;6014;47.690;9.130;2023-04-15T07:57:01;9.40;99.90
11908;DHT22;6014;47.690;9.130;2023-04-15T07:59:29;9.70;99.90
11908;DHT22;6014;47.690;9.130;2023-04-15T08:02:00;9.90;99.90
11908;DHT22;6014;47.690;9.130;2023-04-15T08:04:29;9.90;99.90
11908;DHT22;6014;47.690;9.130;2023-04-15T08:06:57;10.00;99.90
11908;DHT22;6014;47.690;9.130;2023-04-15T08:09:25;10.00;99.90
11908;DHT22;6014;47.690;9.130;2023-04-15T08:11:53;10.20;99.90
11908;DHT22;6014;47.690;9.130;2023-04-15T08:14:23;10.40;99.90
11908;DHT22;6014;47.690;9.130;2023-04-15T08:16:51;10.80;99.90
11908;DHT22;6014;47.690;9.130;2023-04-15T08:19:20;10.60;99.20
11908;DHT22;6014;47.690;9.130;2023-04-15T08:21:48;10.30;99.10
11908;DHT22;6014;47.690;9.130;2023-04-15T08:24:16;10.40;99.90
11908;DHT22;6014;47.690;9.130;2023-04-15T08:26:45;10.50;99.40
11908;DHT22;6014;47.690;9.130;2023-04-15T08:29:13;10.40;99.80
11908;DHT22;6014;47.690;9.130;2023-04-15T08:31:41;10.30;98.70
11908;DHT22;6014;47.690;9.130;2023-04-15T08:34:10;9.90;99.90
11908;DHT22;6014;47.690;9.130;2023-04-15T08:36:41;9.80;99.90
11908;DHT22;6014;47.690;9.130;2023-04-15T08:39:09;9.70;99.90
11908;DHT22;6014;47.690;9.130;2023-04-15T08:41:40;9.80;99.90
11908;DHT22;6014;47.690;9.130;2023-04-15T08:44:13;9.80;99.90
11908;DHT22;6014;47.690;9.130;2023-04-15T08:46:42;10.20;99.90
11908;DHT22;6014;47.690;9.130;2023-04-15T08:49:11;10.50;99.90
11908;DHT22;6014;47.690;9.130;2023-04-15T08:51:41;10.50;98.00
11908;DHT22;6014;47.690;9.130;2023-04-15T08:54:09;10.20;99.30
11908;DHT22;6014;47.690;9.130;2023-04-15T08:56:38;10.30;99.90
11908;DHT22;6014;47.690;9.130;2023-04-15T08:59:06;10.30;98.40
11908;DHT22;6014;47.690;9.130;2023-04-15T09:01:36;10.90;96.10
11908;DHT22;6014;47.690;9.130;2023-04-15T09:04:05;11.00;95.60
11908;DHT22;6014;47.690;9.130;2023-04-15T09:06:34;11.20;93.40
11908;DHT22;6014;47.690;9.130;2023-04-15T09:09:04;11.20;91.60
11908;DHT22;6014;47.690;9.130;2023-04-15T09:11:32;11.20;90.10
11908;DHT22;6014;47.690;9.130;2023-04-15T09:14:01;11.20;91.80
11908;DHT22;6014;47.690;9.130;2023-04-15T09:16:29;11.50;91.60
11908;DHT22;6014;47.690;9.130;2023-04-15T09:18:57;11.80;86.80
11908;DHT22;6014;47.690;9.130;2023-04-15T09:21:25;11.90;79.40
11908;DHT22;6014;47.690;9.130;2023-04-15T09:23:56;12.00;81.60
11908;DHT22;6014;47.690;9.130;2023-04-15T09:26:33;11.90;88.60
11908;DHT22;6014;47.690;9.130;2023-04-15T09:29:05;12.20;83.50
11908;DHT22;6014;47.690;9.130;2023-04-15T09:31:35;12.10;72.80
11908;DHT22;6014;47.690;9.130;2023-04-15T09:34:04;12.10;72.30
11908;DHT22;6014;47.690;9.130;2023-04-15T09:36:51;12.10;70.50
11908;DHT22;6014;47.690;9.130;2023-04-15T09:39:19;12.30;64.50
11908;DHT22;6014;47.690;9.130;2023-04-15T09:42:03;12.50;63.00
11908;DHT22;6014;47.690;9.130;2023-04-15T09:44:32;12.30;61.70
11908;DHT22;6014;47.690;9.130;2023-04-15T09:47:00;12.20;59.70
11908;DHT22;6014;47.690;9.130;2023-04-15T09:49:29;12.20;58.70
11908;DHT22;6014;47.690;9.130;2023-04-15T09:51:58;12.00;63.90
11908;DHT22;6014;47.690;9.130;2023-04-15T09:54:36;12.10;67.50
11908;DHT22;6014;47.690;9.130;2023-04-15T09:57:06;11.90;66.90
11908;DHT22;6014;47.690;9.130;2023-04-15T09:59:35;11.70;72.70
11908;DHT22;6014;47.690;9.130;2023-04-15T10:02:04;11.80;70.50
11908;DHT22;6014;47.690;9.130;2023-04-15T10:04:35;11.80;73.30
11908;DHT22;6014;47.690;9.130;2023-04-15T10:07:07;11.70;79.00
11908;DHT22;6014;47.690;9.130;2023-04-15T10:09:37;11.90;78.60
11908;DHT22;6014;47.690;9.130;2023-04-15T10:12:08;11.80;78.50
11908;DHT22;6014;47.690;9.130;2023-04-15T10:14:37;11.80;80.80
11908;DHT22;6014;47.690;9.130;2023-04-15T10:17:07;12.00;81.00
11908;DHT22;6014;47.690;9.130;2023-04-15T10:19:37;12.10;75.80
11908;DHT22;6014;47.690;9.130;2023-04-15T10:22:05;12.00;74.40
11908;DHT22;6014;47.690;9.130;2023-04-15T10:24:33;12.10;75.20
11908;DHT22;6014;47.690;9.130;2023-04-15T10:27:02;12.10;72.80
11908;DHT22;6014;47.690;9.130;2023-04-15T10:29:33;12.20;76.60
11908;DHT22;6014;47.690;9.130;2023-04-15T10:32:02;12.00;74.60
11908;DHT22;6014;47.690;9.130;2023-04-15T10:34:32;12.20;76.80
11908;DHT22;6014;47.690;9.130;2023-04-15T10:37:01;12.40;76.70
11908;DHT22;6014;47.690;9.130;2023-04-15T10:39:44;12.90;73.10
11908;DHT22;6014;47.690;9.130;2023-04-15T10:42:14;13.20;70.00
11908;DHT22;6014;47.690;9.130;2023-04-15T10:44:44;13.40;67.60
11908;DHT22;6014;47.690;9.130;2023-04-15T10:47:21;13.40;59.80
11908;DHT22;6014;47.690;9.130;2023-04-15T10:49:51;13.30;58.60
11908;DHT22;6014;47.690;9.130;2023-04-15T10:52:22;13.20;58.10
11908;DHT22;6014;47.690;9.130;2023-04-15T10:55:01;13.10;61.60
11908;DHT22;6014;47.690;9.130;2023-04-15T10:57:34;13.10;59.00
11908;DHT22;6014;47.690;9.130;2023-04-15T11:00:12;13.00;63.20
11908;DHT22;6014;47.690;9.130;2023-04-15T11:02:50;13.10;60.20
11908;DHT22;6014;47.690;9.130;2023-04-15T11:05:20;13.10;61.20
11908;DHT22;6014;47.690;9.130;2023-04-15T11:07:51;13.00;63.80
11908;DHT22;6014;47.690;9.130;2023-04-15T11:13:26;12.60;65.60
11908;DHT22;6014;47.690;9.130;2023-04-15T11:15:58;12.80;65.30
11908;DHT22;6014;47.690;9.130;2023-04-15T11:18:32;13.00;67.40
11908;DHT22;6014;47.690;9.130;2023-04-15T11:21:05;13.20;68.50
11908;DHT22;6014;47.690;9.130;2023-04-15T11:23:37;13.40;63.20
11908;DHT22;6014;47.690;9.130;2023-04-15T11:26:06;13.20;65.80
11908;DHT22;6014;47.690;9.130;2023-04-15T11:28:38;13.60;61.30
11908;DHT22;6014;47.690;9.130;2023-04-15T11:31:10;13.90;63.70
11908;DHT22;6014;47.690;9.130;2023-04-15T11:33:44;14.00;58.30
11908;DHT22;6014;47.690;9.130;2023-04-15T11:36:12;14.00;56.00
11908;DHT22;6014;47.690;9.130;2023-04-15T11:38:45;14.00;57.70
11908;DHT22;6014;47.690;9.130;2023-04-15T11:41:13;14.50;56.30
11908;DHT22;6014;47.690;9.130;2023-04-15T11:43:42;15.00;54.50
11908;DHT22;6014;47.690;9.130;2023-04-15T11:46:12;14.80;51.10
11908;DHT22;6014;47.690;9.130;2023-04-15T11:48:42;14.90;45.50
11908;DHT22;6014;47.690;9.130;2023-04-15T11:51:11;15.40;40.50
11908;DHT22;6014;47.690;9.130;2023-04-15T11:53:41;15.10;42.60
11908;DHT22;6014;47.690;9.130;2023-04-15T11:56:15;14.50;40.90
11908;DHT22;6014;47.690;9.130;2023-04-15T11:58:43;14.10;44.00
11908;DHT22;6014;47.690;9.130;2023-04-15T12:01:13;13.90;46.90
11908;DHT22;6014;47.690;9.130;2023-04-15T12:03:42;14.00;46.00
11908;DHT22;6014;47.690;9.130;2023-04-15T12:06:14;13.80;47.30
11908;DHT22;6014;47.690;9.130;2023-04-15T12:08:55;13.70;44.90
11908;DHT22;6014;47.690;9.130;2023-04-15T12:11:33;13.60;41.90
11908;DHT22;6014;47.690;9.130;2023-04-15T12:14:06;13.50;40.60
11908;DHT22;6014;47.690;9.130;2023-04-15T12:16:38;13.20;42.30
11908;DHT22;6014;47.690;9.130;2023-04-15T12:19:18;13.10;43.50
11908;DHT22;6014;47.690;9.130;2023-04-15T12:21:49;13.00;44.10
11908;DHT22;6014;47.690;9.130;2023-04-15T12:24:20;12.90;44.70
11908;DHT22;6014;47.690;9.130;2023-04-15T12:26:50;12.90;46.60
11908;DHT22;6014;47.690;9.130;2023-04-15T12:29:19;12.90;49.60
11908;DHT22;6014;47.690;9.130;2023-04-15T12:31:50;12.90;51.20
11908;DHT22;6014;47.690;9.130;2023-04-15T12:34:26;13.00;52.00
11908;DHT22;6014;47.690;9.130;2023-04-15T12:36:55;13.10;46.90
11908;DHT22;6014;47.690;9.130;2023-04-15T12:39:26;13.30;45.20
11908;DHT22;6014;47.690;9.130;2023-04-15T12:41:56;13.50;43.80
11908;DHT22;6014;47.690;9.130;2023-04-15T12:44:25;13.70;43.40
11908;DHT22;6014;47.690;9.130;2023-04-15T12:46:55;14.00;36.40
11908;DHT22;6014;47.690;9.130;2023-04-15T12:49:32;13.90;30.90
11908;DHT22;6014;47.690;9.130;2023-04-15T12:52:01;14.20;30.50
11908;DHT22;6014;47.690;9.130;2023-04-15T12:54:30;14.20;30.80
11908;DHT22;6014;47.690;9.130;2023-04-15T12:56:58;14.00;31.50
11908;DHT22;6014;47.690;9.130;2023-04-15T12:59:27;14.00;31.90
11908;DHT22;6014;47.690;9.130;2023-04-15T13:01:57;13.80;32.10
11908;DHT22;6014;47.690;9.130;2023-04-15T13:04:26;13.70;31.60
11908;DHT22;6014;47.690;9.130;2023-04-15T13:06:56;13.70;33.70
11908;DHT22;6014;47.690;9.130;2023-04-15T13:09:24;13.70;32.90
11908;DHT22;6014;47.690;9.130;2023-04-15T13:11:52;13.70;35.20
11908;DHT22;6014;47.690;9.130;2023-04-15T13:14:21;13.60;38.90
11908;DHT22;6014;47.690;9.130;2023-04-15T13:16:49;13.50;42.90
11908;DHT22;6014;47.690;9.130;2023-04-15T13:19:19;13.50;44.80
11908;DHT22;6014;47.690;9.130;2023-04-15T13:21:47;13.60;48.50
11908;DHT22;6014;47.690;9.130;2023-04-15T13:24:15;13.40;51.00
11908;DHT22;6014;47.690;9.130;2023-04-15T13:26:43;13.50;50.90
11908;DHT22;6014;47.690;9.130;2023-04-15T13:29:11;13.50;49.30
11908;DHT22;6014;47.690;9.130;2023-04-15T13:31:39;13.60;47.10
11908;DHT22;6014;47.690;9.130;2023-04-15T13:34:07;13.70;47.80
11908;DHT22;6014;47.690;9.130;2023-04-15T13:36:37;13.90;45.50
11908;DHT22;6014;47.690;9.130;2023-04-15T13:39:05;13.90;43.40
11908;DHT22;6014;47.690;9.130;2023-04-15T13:41:33;14.10;41.20
11908;DHT22;6014;47.690;9.130;2023-04-15T13:44:01;14.40;39.80
11908;DHT22;6014;47.690;9.130;2023-04-15T13:46:31;14.70;38.90
11908;DHT22;6014;47.690;9.130;2023-04-15T13:48:59;14.80;39.20
11908;DHT22;6014;47.690;9.130;2023-04-15T13:51:27;14.70;38.70
11908;DHT22;6014;47.690;9.130;2023-04-15T13:53:56;14.80;37.10
11908;DHT22;6014;47.690;9.130;2023-04-15T13:56:24;14.50;36.10
11908;DHT22;6014;47.690;9.130;2023-04-15T13:58:53;14.60;37.00
11908;DHT22;6014;47.690;9.130;2023-04-15T14:01:24;14.40;37.60
11908;DHT22;6014;47.690;9.130;2023-04-15T14:03:53;14.60;37.70
11908;DHT22;6014;47.690;9.130;2023-04-15T14:06:21;14.60;37.10
11908;DHT22;6014;47.690;9.130;2023-04-15T14:08:49;14.80;37.20
11908;DHT22;6014;47.690;9.130;2023-04-15T14:11:18;14.70;37.00
11908;DHT22;6014;47.690;9.130;2023-04-15T14:13:46;14.40;37.80
11908;DHT22;6014;47.690;9.130;2023-04-15T14:16:14;14.00;38.00
11908;DHT22;6014;47.690;9.130;2023-04-15T14:18:43;13.90;39.00
11908;DHT22;6014;47.690;9.130;2023-04-15T14:21:11;13.70;37.90
11908;DHT22;6014;47.690;9.130;2023-04-15T14:23:39;13.60;38.30
11908;DHT22;6014;47.690;9.130;2023-04-15T14:26:13;13.60;39.50
11908;DHT22;6014;47.690;9.130;2023-04-15T14:28:44;13.80;39.70
11908;DHT22;6014;47.690;9.130;2023-04-15T14:31:15;13.90;40.40
11908;DHT22;6014;47.690;9.130;2023-04-15T14:33:47;14.20;39.30
11908;DHT22;6014;47.690;9.130;2023-04-15T14:36:18;14.10;38.60
11908;DHT22;6014;47.690;9.130;2023-04-15T14:38:46;14.10;38.50
11908;DHT22;6014;47.690;9.130;2023-04-15T14:41:15;14.30;38.50
11908;DHT22;6014;47.690;9.130;2023-04-15T14:43:52;14.10;40.10
11908;DHT22;6014;47.690;9.130;2023-04-15T14:46:20;14.00;39.70
11908;DHT22;6014;47.690;9.130;2023-04-15T14:48:49;13.80;39.40
11908;DHT22;6014;47.690;9.130;2023-04-15T14:51:19;13.90;40.70
11908;DHT22;6014;47.690;9.130;2023-04-15T14:53:51;13.50;39.30
11908;DHT22;6014;47.690;9.130;2023-04-15T14:56:19;13.30;40.70
11908;DHT22;6014;47.690;9.130;2023-04-15T14:58:47;13.30;42.40
11908;DHT22;6014;47.690;9.130;2023-04-15T15:01:22;13.20;43.40
11908;DHT22;6014;47.690;9.130;2023-04-15T15:03:51;13.20;43.80
11908;DHT22;6014;47.690;9.130;2023-04-15T15:06:23;13.20;43.80
11908;DHT22;6014;47.690;9.130;2023-04-15T15:08:52;13.20;44.70
11908;DHT22;6014;47.690;9.130;2023-04-15T15:11:40;13.00;46.50
11908;DHT22;6014;47.690;9.130;2023-04-15T15:14:09;13.00;50.00
11908;DHT22;6014;47.690;9.130;2023-04-15T15:16:38;12.80;55.20
11908;DHT22;6014;47.690;9.130;2023-04-15T15:19:06;12.80;58.10
11908;DHT22;6014;47.690;9.130;2023-04-15T15:21:35;12.60;55.90
11908;DHT22;6014;47.690;9.130;2023-04-15T15:24:05;12.60;57.50
11908;DHT22;6014;47.690;9.130;2023-04-15T15:26:33;12.40;60.90
11908;DHT22;6014;47.690;9.130;2023-04-15T15:29:01;12.30;66.50
11908;DHT22;6014;47.690;9.130;2023-04-15T15:31:30;12.20;76.20
11908;DHT22;6014;47.690;9.130;2023-04-15T15:34:06;12.20;81.20
11908;DHT22;6014;47.690;9.130;2023-04-15T15:36:34;12.20;88.40
11908;DHT22;6014;47.690;9.130;2023-04-15T15:39:02;12.20;91.70
11908;DHT22;6014;47.690;9.130;2023-04-15T15:41:31;12.00;94.10
11908;DHT22;6014;47.690;9.130;2023-04-15T15:44:06;11.90;96.70
11908;DHT22;6014;47.690;9.130;2023-04-15T15:46:34;11.90;97.20
11908;DHT22;6014;47.690;9.130;2023-04-15T15:49:02;11.90;96.60
11908;DHT22;6014;47.690;9.130;2023-04-15T15:51:34;11.90;94.10
11908;DHT22;6014;47.690;9.130;2023-04-15T15:54:02;11.90;95.00
11908;DHT22;6014;47.690;9.130;2023-04-15T15:56:30;11.70;94.80
11908;DHT22;6014;47.690;9.130;2023-04-15T15:58:58;11.70;95.00
11908;DHT22;6014;47.690;9.130;2023-04-15T16:01:26;11.60;95.90
11908;DHT22;6014;47.690;9.130;2023-04-15T16:04:08;11.40;96.70
11908;DHT22;6014;47.690;9.130;2023-04-15T16:06:38;11.40;99.90
11908;DHT22;6014;47.690;9.130;2023-04-15T16:09:06;11.40;99.90
11908;DHT22;6014;47.690;9.130;2023-04-15T16:11:34;11.20;99.90
11908;DHT22;6014;47.690;9.130;2023-04-15T16:14:02;11.20;99.90
11908;DHT22;6014;47.690;9.130;2023-04-15T16:16:40;11.20;99.90
11908;DHT22;6014;47.690;9.130;2023-04-15T16:19:08;11.10;99.90
11908;DHT22;6014;47.690;9.130;2023-04-15T16:21:38;11.10;99.90
11908;DHT22;6014;47.690;9.130;2023-04-15T16:24:06;11.10;99.90
11908;DHT22;6014;47.690;9.130;2023-04-15T16:26:34;11.10;99.90